createdAt,value
2022-09-15T00:01:51.578Z,98091.94
2022-09-15T00:04:18.083Z,98089.00
2022-09-15T00:06:44.588Z,98093.94
2022-09-15T00:09:11.203Z,98104.09
2022-09-15T00:11:38.681Z,98109.84
2022-09-15T00:14:06.868Z,98098.44
2022-09-15T00:16:33.483Z,98096.63
2022-09-15T00:19:00.449Z,98095.75
2022-09-15T00:21:31.349Z,98101.53
2022-09-15T00:23:59.308Z,98093.53
2022-09-15T00:26:28.311Z,98094.28
2022-09-15T00:28:56.758Z,98099.69
2022-09-15T00:31:25.460Z,98108.66
2022-09-15T00:33:55.085Z,98107.41
2022-09-15T00:36:22.737Z,98098.09
2022-09-15T00:38:49.837Z,98099.31
2022-09-15T00:41:19.085Z,98101.88
2022-09-15T00:43:56.529Z,98114.16
2022-09-15T00:46:29.587Z,98105.19
2022-09-15T00:49:03.656Z,98106.53
2022-09-15T00:51:39.109Z,98111.94
2022-09-15T00:54:11.018Z,98113.44
2022-09-15T00:56:40.895Z,98109.63
2022-09-15T00:59:12.064Z,98112.41
2022-09-15T01:01:40.889Z,98125.56
2022-09-15T01:04:07.505Z,98124.72
2022-09-15T01:06:37.594Z,98131.34
2022-09-15T01:09:22.513Z,98130.09
2022-09-15T01:11:49.333Z,98136.13
2022-09-15T01:14:15.841Z,98129.97
2022-09-15T01:17:07.156Z,98131.09
2022-09-15T01:20:11.598Z,98127.78
2022-09-15T01:22:56.476Z,98135.13
2022-09-15T01:25:40.060Z,98132.41
2022-09-15T01:28:34.522Z,98132.28
2022-09-15T01:31:08.422Z,98134.00
2022-09-15T01:33:59.892Z,98137.94
2022-09-15T01:36:43.006Z,98145.28
2022-09-15T01:39:25.688Z,98151.69
2022-09-15T01:42:06.263Z,98138.69
2022-09-15T01:44:38.197Z,98129.22
2022-09-15T01:47:11.989Z,98128.38
2022-09-15T01:49:46.696Z,98139.06
2022-09-15T01:52:17.215Z,98138.69
2022-09-15T01:54:49.198Z,98137.69
2022-09-15T01:57:22.709Z,98131.56
2022-09-15T01:59:50.443Z,98141.25
2022-09-15T02:02:23.102Z,98136.72
2022-09-15T02:04:54.447Z,98138.44
2022-09-15T02:07:45.107Z,98126.91
2022-09-15T02:10:19.853Z,98126.41
2022-09-15T02:13:01.426Z,98125.28
2022-09-15T02:15:33.451Z,98133.66
2022-09-15T02:18:02.468Z,98133.03
2022-09-15T02:20:39.002Z,98133.72
2022-09-15T02:23:13.286Z,98124.44
2022-09-15T02:25:48.245Z,98128.09
2022-09-15T02:28:18.795Z,98130.28
2022-09-15T02:30:48.446Z,98133.63
2022-09-15T02:33:19.853Z,98137.50
2022-09-15T02:35:46.841Z,98138.75
2022-09-15T02:38:14.307Z,98132.59
2022-09-15T02:40:44.075Z,98146.84
2022-09-15T02:43:13.479Z,98146.47
2022-09-15T02:45:40.587Z,98158.25
2022-09-15T02:48:09.717Z,98154.44
2022-09-15T02:50:37.181Z,98151.44
2022-09-15T02:53:04.250Z,98148.13
2022-09-15T02:55:31.066Z,98144.97
2022-09-15T02:57:58.023Z,98144.47
2022-09-15T03:00:24.827Z,98142.38
2022-09-15T03:02:54.441Z,98148.38
2022-09-15T03:05:23.780Z,98137.09
2022-09-15T03:07:51.997Z,98140.53
2022-09-15T03:10:19.164Z,98140.91
2022-09-15T03:12:50.418Z,98147.00
2022-09-15T03:15:20.291Z,98141.41
2022-09-15T03:17:48.376Z,98142.38
2022-09-15T03:20:21.633Z,98143.13
2022-09-15T03:22:49.593Z,98141.53
2022-09-15T03:25:17.233Z,98146.38
2022-09-15T03:27:43.739Z,98141.88
2022-09-15T03:30:11.238Z,98138.22
2022-09-15T03:32:38.114Z,98146.84
2022-09-15T03:35:05.191Z,98142.34
2022-09-15T03:37:31.698Z,98145.88
2022-09-15T03:39:58.261Z,98141.38
2022-09-15T03:42:25.092Z,98146.91
2022-09-15T03:44:51.577Z,98146.53
2022-09-15T03:47:18.078Z,98150.13
2022-09-15T03:49:44.532Z,98151.56
2022-09-15T03:52:10.998Z,98141.75
2022-09-15T03:54:37.448Z,98137.44
2022-09-15T03:57:04.206Z,98140.00
2022-09-15T03:59:30.744Z,98144.06
2022-09-15T04:01:57.341Z,98144.41
2022-09-15T04:04:24.061Z,98147.69
2022-09-15T04:06:50.616Z,98145.09
2022-09-15T04:09:17.205Z,98139.34
2022-09-15T04:11:43.820Z,98141.41
2022-09-15T04:14:10.354Z,98148.38
2022-09-15T04:16:36.929Z,98158.06
2022-09-15T04:19:03.718Z,98152.06
2022-09-15T04:21:31.718Z,98151.53
2022-09-15T04:23:58.261Z,98155.84
2022-09-15T04:26:31.979Z,98142.38
2022-09-15T04:29:03.853Z,98142.09
2022-09-15T04:31:31.419Z,98142.31
2022-09-15T04:33:57.984Z,98142.94
2022-09-15T04:36:27.403Z,98155.34
2022-09-15T04:38:55.268Z,98149.19
2022-09-15T04:41:22.242Z,98151.25
2022-09-15T04:43:48.723Z,98151.38
2022-09-15T04:46:15.494Z,98149.44
2022-09-15T04:48:42.588Z,98157.28
2022-09-15T04:51:12.688Z,98160.72
2022-09-15T04:53:39.433Z,98159.97
2022-09-15T04:56:08.629Z,98162.94
2022-09-15T04:58:46.129Z,98162.44
2022-09-15T05:01:16.383Z,98161.22
2022-09-15T05:03:43.853Z,98163.25
2022-09-15T05:06:12.231Z,98157.25
2022-09-15T05:08:38.770Z,98159.97
2022-09-15T05:11:08.493Z,98160.34
2022-09-15T05:13:36.222Z,98152.25
2022-09-15T05:16:20.140Z,98155.06
2022-09-15T05:18:48.222Z,98159.63
2022-09-15T05:21:16.765Z,98164.63
2022-09-15T05:23:43.787Z,98161.34
2022-09-15T05:26:14.453Z,98166.09
2022-09-15T05:28:41.687Z,98169.16
2022-09-15T05:31:17.866Z,98169.69
2022-09-15T05:33:45.971Z,98166.63
2022-09-15T05:36:15.042Z,98176.78
2022-09-15T05:38:41.979Z,98173.63
2022-09-15T05:41:10.168Z,98173.50
2022-09-15T05:43:38.088Z,98170.25
2022-09-15T05:46:05.923Z,98174.53
2022-09-15T05:48:32.725Z,98174.28
2022-09-15T05:50:59.351Z,98174.66
2022-09-15T05:53:26.166Z,98177.47
2022-09-15T05:55:56.888Z,98176.28
2022-09-15T05:58:23.650Z,98174.06
2022-09-15T06:00:50.170Z,98175.03
2022-09-15T06:03:17.465Z,98177.59
2022-09-15T06:05:44.027Z,98173.06
2022-09-15T06:08:10.832Z,98177.59
2022-09-15T06:10:37.533Z,98174.66
2022-09-15T06:13:04.060Z,98180.56
2022-09-15T06:15:31.637Z,98189.13
2022-09-15T06:17:58.500Z,98185.44
2022-09-15T06:20:25.543Z,98183.34
2022-09-15T06:22:53.288Z,98187.22
2022-09-15T06:25:19.767Z,98184.41
2022-09-15T06:27:49.815Z,98191.16
2022-09-15T06:30:16.396Z,98186.63
2022-09-15T06:32:47.939Z,98190.69
2022-09-15T06:35:15.290Z,98192.25
2022-09-15T06:37:41.641Z,98199.78
2022-09-15T06:40:08.886Z,98192.78
2022-09-15T06:42:35.465Z,98198.19
2022-09-15T06:45:01.999Z,98196.97
2022-09-15T06:47:33.916Z,98192.41
2022-09-15T06:50:01.105Z,98187.25
2022-09-15T06:52:27.806Z,98181.13
2022-09-15T06:54:54.247Z,98180.28
2022-09-15T06:57:20.687Z,98180.16
2022-09-15T06:59:47.121Z,98181.63
2022-09-15T07:02:13.678Z,98184.81
2022-09-15T07:04:40.249Z,98183.59
2022-09-15T07:07:06.725Z,98191.19
2022-09-15T07:09:33.219Z,98195.00
2022-09-15T07:11:59.756Z,98197.69
2022-09-15T07:14:26.197Z,98200.53
2022-09-15T07:16:52.622Z,98192.41
2022-09-15T07:19:19.044Z,98196.47
2022-09-15T07:21:45.482Z,98197.06
2022-09-15T07:24:12.744Z,98201.38
2022-09-15T07:26:39.194Z,98193.88
2022-09-15T07:29:06.896Z,98199.50
2022-09-15T07:31:35.063Z,98199.03
2022-09-15T07:34:02.361Z,98194.09
2022-09-15T07:36:29.970Z,98200.75
2022-09-15T07:38:56.666Z,98204.91
2022-09-15T07:41:25.866Z,98209.34
2022-09-15T07:43:54.681Z,98213.97
2022-09-15T07:46:23.030Z,98217.28
2022-09-15T07:48:51.389Z,98221.56
2022-09-15T07:51:19.065Z,98218.25
2022-09-15T07:53:47.493Z,98229.06
2022-09-15T07:56:16.149Z,98234.38
2022-09-15T07:58:42.602Z,98233.41
2022-09-15T08:01:14.894Z,98230.06
2022-09-15T08:03:43.210Z,98236.97
2022-09-15T08:06:10.804Z,98241.38
2022-09-15T08:08:41.273Z,98239.66
2022-09-15T08:11:19.290Z,98235.88
2022-09-15T08:13:47.162Z,98246.41
2022-09-15T08:16:16.426Z,98244.31
2022-09-15T08:18:43.799Z,98239.53
2022-09-15T08:21:13.000Z,98242.97
2022-09-15T08:23:40.286Z,98242.72
2022-09-15T08:26:14.076Z,98246.78
2022-09-15T08:28:41.876Z,98245.53
2022-09-15T08:31:10.071Z,98244.53
2022-09-15T08:33:38.190Z,98242.69
2022-09-15T08:36:10.965Z,98244.50
2022-09-15T08:38:41.579Z,98243.63
2022-09-15T08:41:13.566Z,98237.84
2022-09-15T08:43:51.552Z,98243.88
2022-09-15T08:46:25.458Z,98242.13
2022-09-15T08:49:04.351Z,98243.81
2022-09-15T08:51:44.712Z,98255.19
2022-09-15T08:54:21.367Z,98254.31
2022-09-15T08:56:48.062Z,98257.38
2022-09-15T08:59:17.106Z,98261.78
2022-09-15T09:02:02.569Z,98259.34
2022-09-15T09:04:55.016Z,98255.66
2022-09-15T09:07:33.836Z,98257.47
2022-09-15T09:10:22.141Z,98259.84
2022-09-15T09:13:10.114Z,98267.34
2022-09-15T09:15:41.675Z,98266.72
2022-09-15T09:18:54.698Z,98263.72
2022-09-15T09:21:30.139Z,98258.53
2022-09-15T09:24:13.023Z,98262.91
2022-09-15T09:26:39.966Z,98256.56
2022-09-15T09:29:11.930Z,98262.97
2022-09-15T09:31:40.846Z,98256.31
2022-09-15T09:34:33.410Z,98255.06
2022-09-15T09:37:09.219Z,98255.59
2022-09-15T09:39:35.989Z,98254.31
2022-09-15T09:42:03.712Z,98254.41
2022-09-15T09:44:32.741Z,98253.75
2022-09-15T09:47:00.518Z,98256.03
2022-09-15T09:49:34.407Z,98260.06
2022-09-15T09:52:03.674Z,98253.91
2022-09-15T09:54:32.680Z,98253.69
2022-09-15T09:57:14.269Z,98248.91
2022-09-15T09:59:44.075Z,98244.50
2022-09-15T10:02:10.467Z,98242.69
2022-09-15T10:04:48.346Z,98249.56
2022-09-15T10:07:18.315Z,98246.13
2022-09-15T10:10:00.319Z,98246.47
2022-09-15T10:12:39.980Z,98244.34
2022-09-15T10:15:19.509Z,98247.91
2022-09-15T10:17:48.647Z,98247.25
2022-09-15T10:20:35.621Z,98254.91
2022-09-15T10:23:06.851Z,98245.16
2022-09-15T10:25:55.496Z,98249.78
2022-09-15T10:28:26.154Z,98243.78
2022-09-15T10:31:00.703Z,98240.00
2022-09-15T10:33:29.547Z,98245.03
2022-09-15T10:36:06.110Z,98240.09
2022-09-15T10:38:41.399Z,98241.66
2022-09-15T10:41:20.734Z,98240.69
2022-09-15T10:43:59.120Z,98242.25
2022-09-15T10:46:31.570Z,98239.22
2022-09-15T10:49:33.053Z,98230.63
2022-09-15T10:52:22.741Z,98236.09
2022-09-15T10:55:42.175Z,98244.69
2022-09-15T10:58:36.214Z,98237.16
2022-09-15T11:01:28.943Z,98243.66
2022-09-15T11:04:29.935Z,98241.09
2022-09-15T11:07:11.454Z,98243.00
2022-09-15T11:09:57.326Z,98243.59
2022-09-15T11:12:41.578Z,98237.78
2022-09-15T11:15:48.706Z,98227.16
2022-09-15T11:18:20.871Z,98239.75
2022-09-15T11:21:17.533Z,98232.91
2022-09-15T11:23:51.478Z,98228.13
2022-09-15T11:26:29.729Z,98235.84
2022-09-15T11:29:22.193Z,98224.50
2022-09-15T11:31:55.641Z,98225.28
2022-09-15T11:34:28.710Z,98224.94
2022-09-15T11:37:19.728Z,98222.81
2022-09-15T11:39:46.143Z,98221.25
2022-09-15T11:42:26.836Z,98220.38
2022-09-15T11:44:55.249Z,98231.38
2022-09-15T11:47:27.777Z,98225.25
2022-09-15T11:50:06.122Z,98220.97
2022-09-15T11:52:32.503Z,98219.38
2022-09-15T11:55:18.304Z,98221.13
2022-09-15T11:57:51.301Z,98228.66
2022-09-15T12:00:17.973Z,98235.63
2022-09-15T12:03:08.662Z,98225.06
2022-09-15T12:05:39.897Z,98228.47
2022-09-15T12:08:32.541Z,98222.78
2022-09-15T12:11:02.771Z,98235.31
2022-09-15T12:13:30.448Z,98230.78
2022-09-15T12:15:57.556Z,98220.66
2022-09-15T12:18:41.717Z,98227.84
2022-09-15T12:21:26.282Z,98231.94
2022-09-15T12:24:02.959Z,98229.13
2022-09-15T12:26:33.206Z,98226.00
2022-09-15T12:29:04.874Z,98231.28
2022-09-15T12:31:31.377Z,98232.03
2022-09-15T12:34:05.802Z,98228.44
2022-09-15T12:36:44.066Z,98234.44
2022-09-15T12:39:23.918Z,98232.59
2022-09-15T12:41:51.920Z,98226.31
2022-09-15T12:44:40.500Z,98228.00
2022-09-15T12:47:19.054Z,98226.41
2022-09-15T12:49:48.798Z,98221.81
2022-09-15T12:52:16.740Z,98233.50
2022-09-15T12:54:50.279Z,98226.22
2022-09-15T12:57:36.937Z,98230.16
2022-09-15T13:00:27.796Z,98234.59
2022-09-15T13:02:55.529Z,98232.03
2022-09-15T13:05:51.589Z,98230.56
2022-09-15T13:08:23.809Z,98227.53
2022-09-15T13:11:02.775Z,98233.09
2022-09-15T13:13:50.980Z,98225.88
2022-09-15T13:16:46.704Z,98220.84
2022-09-15T13:19:22.407Z,98224.81
2022-09-15T13:22:00.000Z,98226.34
2022-09-15T13:25:04.075Z,98235.19
2022-09-15T13:27:39.879Z,98233.75
2022-09-15T13:30:24.337Z,98256.91
2022-09-15T13:33:12.556Z,98245.88
2022-09-15T13:36:09.804Z,98247.06
2022-09-15T13:39:10.257Z,98252.31
2022-09-15T13:41:54.679Z,98251.59
2022-09-15T13:45:05.591Z,98246.59
2022-09-15T13:47:36.911Z,98247.50
2022-09-15T13:50:25.716Z,98237.28
2022-09-15T13:52:55.131Z,98244.06
2022-09-15T13:55:27.901Z,98244.69
2022-09-15T14:01:03.631Z,98231.69
2022-09-15T14:03:46.393Z,98234.75
2022-09-15T14:06:17.975Z,98230.19
2022-09-15T14:08:47.799Z,98230.81
2022-09-15T14:11:21.477Z,98233.78
2022-09-15T14:13:50.460Z,98230.44
2022-09-15T14:16:29.396Z,98225.88
2022-09-15T14:18:57.962Z,98221.09
2022-09-15T14:21:33.094Z,98220.59
2022-09-15T14:24:14.879Z,98226.88
2022-09-15T14:26:41.453Z,98233.47
2022-09-15T14:29:19.149Z,98227.59
2022-09-15T14:31:47.874Z,98233.09
2022-09-15T14:34:20.775Z,98226.75
2022-09-15T14:36:59.115Z,98229.19
2022-09-15T14:39:25.659Z,98236.78
2022-09-15T14:41:52.180Z,98233.88
2022-09-15T14:47:28.017Z,98242.44
2022-09-15T14:50:17.971Z,98237.19
2022-09-15T14:52:49.896Z,98237.28
2022-09-15T14:55:35.016Z,98234.94
2022-09-15T14:58:03.219Z,98240.47
2022-09-15T15:00:41.645Z,98234.41
2022-09-15T15:03:42.883Z,98231.31
2022-09-15T15:06:29.446Z,98231.78
2022-09-15T15:09:09.043Z,98222.94
2022-09-15T15:11:36.865Z,98226.03
2022-09-15T15:14:08.063Z,98222.59
2022-09-15T15:16:34.976Z,98224.13
2022-09-15T15:19:01.740Z,98220.13
2022-09-15T15:21:42.055Z,98215.41
2022-09-15T15:24:19.999Z,98213.84
2022-09-15T15:26:49.125Z,98206.59
2022-09-15T15:29:51.819Z,98201.09
2022-09-15T15:32:25.065Z,98199.03
2022-09-15T15:34:59.799Z,98213.88
2022-09-15T15:37:30.897Z,98215.41
2022-09-15T15:40:00.909Z,98212.69
2022-09-15T15:42:28.910Z,98204.94
2022-09-15T15:44:59.661Z,98203.34
2022-09-15T15:47:30.583Z,98204.59
2022-09-15T15:50:13.570Z,98200.03
2022-09-15T15:52:41.657Z,98213.47
2022-09-15T15:55:12.053Z,98206.06
2022-09-15T15:57:39.150Z,98205.06
2022-09-15T16:00:21.487Z,98198.69
2022-09-15T16:02:49.056Z,98204.84
2022-09-15T16:05:15.823Z,98198.56
2022-09-15T16:07:43.911Z,98200.94
2022-09-15T16:10:15.908Z,98199.94
2022-09-15T16:12:42.376Z,98196.75
2022-09-15T16:15:18.019Z,98210.53
2022-09-15T16:17:46.988Z,98204.59
2022-09-15T16:20:16.056Z,98215.09
2022-09-15T16:22:43.557Z,98219.84
2022-09-15T16:25:15.851Z,98213.69
2022-09-15T16:27:42.523Z,98213.56
2022-09-15T16:30:12.055Z,98212.38
2022-09-15T16:32:40.241Z,98215.16
2022-09-15T16:35:28.368Z,98221.44
2022-09-15T16:37:54.897Z,98224.13
2022-09-15T16:40:21.499Z,98224.66
2022-09-15T16:42:48.868Z,98226.59
2022-09-15T16:45:34.052Z,98228.00
2022-09-15T16:48:04.030Z,98229.81
2022-09-15T16:50:31.299Z,98231.91
2022-09-15T16:52:58.786Z,98230.06
2022-09-15T16:55:38.876Z,98220.97
2022-09-15T16:58:06.776Z,98215.09
2022-09-15T17:00:36.335Z,98223.59
2022-09-15T17:03:04.979Z,98224.59
2022-09-15T17:05:42.217Z,98226.16
2022-09-15T17:08:12.332Z,98224.84
2022-09-15T17:10:39.892Z,98229.00
2022-09-15T17:13:07.523Z,98227.63
2022-09-15T17:15:35.676Z,98228.03
2022-09-15T17:18:02.825Z,98233.91
2022-09-15T17:20:29.331Z,98235.00
2022-09-15T17:22:56.194Z,98231.91
2022-09-15T17:25:34.939Z,98237.63
2022-09-15T17:28:02.487Z,98234.09
2022-09-15T17:30:31.706Z,98239.72
2022-09-15T17:33:16.998Z,98252.16
2022-09-15T17:35:43.895Z,98241.50
2022-09-15T17:38:10.370Z,98242.81
2022-09-15T17:40:37.217Z,98247.59
2022-09-15T17:43:04.225Z,98250.88
2022-09-15T17:45:35.229Z,98247.22
2022-09-15T17:48:03.737Z,98248.44
2022-09-15T17:50:32.233Z,98245.75
2022-09-15T17:52:59.073Z,98249.63
2022-09-15T17:55:45.165Z,98239.31
2022-09-15T17:58:13.178Z,98246.53
2022-09-15T18:00:40.769Z,98242.88
2022-09-15T18:03:15.885Z,98243.59
2022-09-15T18:05:42.349Z,98239.63
2022-09-15T18:08:09.453Z,98247.25
2022-09-15T18:10:36.671Z,98242.00
2022-09-15T18:13:04.617Z,98242.88
2022-09-15T18:15:34.391Z,98249.63
2022-09-15T18:18:04.160Z,98253.81
2022-09-15T18:20:32.963Z,98254.03
2022-09-15T18:23:00.250Z,98256.88
2022-09-15T18:25:30.987Z,98261.91
2022-09-15T18:28:01.901Z,98257.88
2022-09-15T18:30:31.805Z,98264.88
2022-09-15T18:32:58.983Z,98260.94
2022-09-15T18:35:26.071Z,98257.19
2022-09-15T18:37:58.036Z,98261.06
2022-09-15T18:40:25.848Z,98262.81
2022-09-15T18:42:52.498Z,98268.81
2022-09-15T18:45:19.491Z,98270.56
2022-09-15T18:47:51.658Z,98261.97
2022-09-15T18:50:20.876Z,98264.19
2022-09-15T18:52:48.043Z,98264.06
2022-09-15T18:55:20.210Z,98263.56
2022-09-15T18:57:47.470Z,98271.16
2022-09-15T19:00:17.171Z,98274.34
2022-09-15T19:02:44.515Z,98275.53
2022-09-15T19:05:11.870Z,98286.31
2022-09-15T19:07:39.177Z,98281.81
2022-09-15T19:10:07.284Z,98285.13
2022-09-15T19:12:35.454Z,98284.25
2022-09-15T19:15:03.051Z,98282.66
2022-09-15T19:17:29.531Z,98281.06
2022-09-15T19:19:56.022Z,98285.47
2022-09-15T19:22:22.590Z,98282.16
2022-09-15T19:24:49.095Z,98283.03
2022-09-15T19:27:15.574Z,98287.19
2022-09-15T19:29:42.211Z,98281.94
2022-09-15T19:32:11.384Z,98294.78
2022-09-15T19:34:39.174Z,98287.94
2022-09-15T19:37:10.772Z,98292.34
2022-09-15T19:39:39.722Z,98285.47
2022-09-15T19:42:07.473Z,98288.81
2022-09-15T19:44:34.360Z,98295.16
2022-09-15T19:47:00.936Z,98298.31
2022-09-15T19:49:27.475Z,98291.59
2022-09-15T19:51:55.563Z,98292.94
2022-09-15T19:54:23.610Z,98294.88
2022-09-15T19:56:51.162Z,98298.44
2022-09-15T19:59:18.412Z,98310.97
2022-09-15T20:01:45.053Z,98307.38
2022-09-15T20:04:12.425Z,98306.53
2022-09-15T20:06:39.581Z,98313.53
2022-09-15T20:09:07.123Z,98308.16
2022-09-15T20:11:34.081Z,98305.66
2022-09-15T20:14:00.799Z,98306.66
2022-09-15T20:16:27.446Z,98320.25
2022-09-15T20:18:55.167Z,98312.28
2022-09-15T20:21:45.880Z,98307.50
2022-09-15T20:24:11.602Z,98313.66
2022-09-15T20:26:38.157Z,98312.72
2022-09-15T20:29:05.306Z,98312.41
2022-09-15T20:31:33.110Z,98307.63
2022-09-15T20:34:01.633Z,98311.44
2022-09-15T20:36:33.243Z,98304.53
2022-09-15T20:39:01.005Z,98304.44
2022-09-15T20:41:28.547Z,98309.81
2022-09-15T20:43:55.627Z,98308.56
2022-09-15T20:46:23.444Z,98308.69
2022-09-15T20:48:51.314Z,98304.25
2022-09-15T20:51:21.562Z,98304.72
2022-09-15T20:53:50.003Z,98304.88
2022-09-15T20:56:18.171Z,98312.22
2022-09-15T20:58:44.599Z,98312.97
2022-09-15T21:01:14.511Z,98314.28
2022-09-15T21:03:43.023Z,98314.06
2022-09-15T21:06:11.642Z,98317.50
2022-09-15T21:08:38.227Z,98318.38
2022-09-15T21:11:06.499Z,98326.22
2022-09-15T21:13:37.126Z,98325.75
2022-09-15T21:16:09.436Z,98327.16
2022-09-15T21:18:39.184Z,98330.69
2022-09-15T21:21:11.205Z,98329.47
2022-09-15T21:23:40.839Z,98333.91
2022-09-15T21:26:10.066Z,98332.59
2022-09-15T21:28:37.895Z,98328.16
2022-09-15T21:31:13.147Z,98334.66
2022-09-15T21:33:39.947Z,98323.88
2022-09-15T21:36:14.709Z,98334.16
2022-09-15T21:38:43.045Z,98340.06
2022-09-15T21:41:13.763Z,98350.72
2022-09-15T21:43:41.425Z,98357.06
2022-09-15T21:46:11.992Z,98358.47
2022-09-15T21:48:38.930Z,98364.06
2022-09-15T21:51:07.028Z,98367.31
2022-09-15T21:53:35.041Z,98372.81
2022-09-15T21:56:03.422Z,98366.56
2022-09-15T21:58:38.942Z,98369.38
2022-09-15T22:01:14.830Z,98370.47
2022-09-15T22:03:42.370Z,98369.09
2022-09-15T22:06:11.023Z,98375.31
2022-09-15T22:08:40.631Z,98371.16
2022-09-15T22:11:08.323Z,98364.25
2022-09-15T22:13:43.726Z,98359.59
2022-09-15T22:16:17.126Z,98360.81
2022-09-15T22:18:44.529Z,98363.31
2022-09-15T22:21:16.277Z,98358.19
2022-09-15T22:23:43.967Z,98364.53
2022-09-15T22:26:22.699Z,98362.16
2022-09-15T22:28:49.623Z,98369.84
2022-09-15T22:31:17.662Z,98372.34
2022-09-15T22:33:44.767Z,98368.47
2022-09-15T22:36:12.879Z,98368.38
2022-09-15T22:38:39.680Z,98371.84
2022-09-15T22:41:09.346Z,98374.28
2022-09-15T22:43:36.801Z,98376.22
2022-09-15T22:46:03.462Z,98370.75
2022-09-15T22:48:30.177Z,98370.03
2022-09-15T22:50:57.180Z,98378.00
2022-09-15T22:53:23.628Z,98384.47
2022-09-15T22:55:51.079Z,98381.78
2022-09-15T22:58:17.634Z,98374.13
2022-09-15T23:00:44.247Z,98378.19
2022-09-15T23:03:11.491Z,98375.84
2022-09-15T23:05:38.203Z,98374.00
2022-09-15T23:08:04.787Z,98370.56
2022-09-15T23:10:32.383Z,98376.94
2022-09-15T23:12:59.529Z,98385.88
2022-09-15T23:15:26.065Z,98388.22
2022-09-15T23:17:52.911Z,98399.00
2022-09-15T23:20:19.492Z,98410.53
2022-09-15T23:22:45.975Z,98407.44
2022-09-15T23:25:13.018Z,98411.41
2022-09-15T23:27:39.635Z,98417.75
2022-09-15T23:30:06.501Z,98414.75
2022-09-15T23:32:33.115Z,98406.34
2022-09-15T23:34:59.586Z,98404.50
2022-09-15T23:37:26.107Z,98402.47
2022-09-15T23:39:52.767Z,98398.00
2022-09-15T23:42:19.284Z,98390.97
2022-09-15T23:44:45.905Z,98386.78
2022-09-15T23:47:12.368Z,98394.84
2022-09-15T23:49:38.889Z,98390.13
2022-09-15T23:52:05.347Z,98390.84
2022-09-15T23:54:31.847Z,98391.50
2022-09-15T23:56:58.406Z,98397.72
